sensor_id;sensor_type;location;lat;lon;timestamp;temperature;humidity
39997;DHT22;25688;52.338;21.072;2024-03-02T00:00:23;6.90;99.90
39997;DHT22;25688;52.338;21.072;2024-03-02T00:02:51;6.90;99.90
39997;DHT22;25688;52.338;21.072;2024-03-02T00:05:22;6.80;99.90
39997;DHT22;25688;52.338;21.072;2024-03-02T00:07:57;6.80;99.90
39997;DHT22;25688;52.338;21.072;2024-03-02T00:10:39;6.80;99.90
39997;DHT22;25688;52.338;21.072;2024-03-02T00:13:06;6.80;99.90
39997;DHT22;25688;52.338;21.072;2024-03-02T00:15:54;6.70;99.90
39997;DHT22;25688;52.338;21.072;2024-03-02T00:18:40;6.70;99.90
39997;DHT22;25688;52.338;21.072;2024-03-02T00:21:07;6.70;99.90
39997;DHT22;25688;52.338;21.072;2024-03-02T00:23:37;6.70;99.90
39997;DHT22;25688;52.338;21.072;2024-03-02T00:26:04;6.60;99.90
39997;DHT22;25688;52.338;21.072;2024-03-02T00:28:35;6.60;99.90
39997;DHT22;25688;52.338;21.072;2024-03-02T00:31:05;6.60;99.90
39997;DHT22;25688;52.338;21.072;2024-03-02T00:33:43;6.60;99.90
39997;DHT22;25688;52.338;21.072;2024-03-02T00:36:10;6.60;99.90
39997;DHT22;25688;52.338;21.072;2024-03-02T00:38:55;6.50;99.90
39997;DHT22;25688;52.338;21.072;2024-03-02T00:41:24;6.50;99.90
39997;DHT22;25688;52.338;21.072;2024-03-02T00:44:13;6.50;99.90
39997;DHT22;25688;52.338;21.072;2024-03-02T00:46:41;6.40;99.90
39997;DHT22;25688;52.338;21.072;2024-03-02T00:49:23;6.40;99.90
39997;DHT22;25688;52.338;21.072;2024-03-02T00:51:52;6.40;99.90
39997;DHT22;25688;52.338;21.072;2024-03-02T00:54:23;6.30;99.90
39997;DHT22;25688;52.338;21.072;2024-03-02T00:56:50;6.30;99.90
39997;DHT22;25688;52.338;21.072;2024-03-02T00:59:17;6.30;99.90
39997;DHT22;25688;52.338;21.072;2024-03-02T01:01:42;6.20;99.90
39997;DHT22;25688;52.338;21.072;2024-03-02T01:04:09;6.20;99.90
39997;DHT22;25688;52.338;21.072;2024-03-02T01:06:35;6.20;99.90
39997;DHT22;25688;52.338;21.072;2024-03-02T01:09:02;6.10;99.90
39997;DHT22;25688;52.338;21.072;2024-03-02T01:11:28;6.10;99.90
39997;DHT22;25688;52.338;21.072;2024-03-02T01:13:54;6.10;99.90
39997;DHT22;25688;52.338;21.072;2024-03-02T01:16:20;6.10;99.90
39997;DHT22;25688;52.338;21.072;2024-03-02T01:18:46;6.10;99.90
39997;DHT22;25688;52.338;21.072;2024-03-02T01:21:11;6.10;99.90
39997;DHT22;25688;52.338;21.072;2024-03-02T01:23:37;6.00;99.90
39997;DHT22;25688;52.338;21.072;2024-03-02T01:26:03;6.00;99.90
39997;DHT22;25688;52.338;21.072;2024-03-02T01:28:29;6.00;99.90
39997;DHT22;25688;52.338;21.072;2024-03-02T01:30:55;6.00;99.90
39997;DHT22;25688;52.338;21.072;2024-03-02T01:33:21;6.00;99.90
39997;DHT22;25688;52.338;21.072;2024-03-02T01:35:47;6.00;99.90
39997;DHT22;25688;52.338;21.072;2024-03-02T01:38:13;6.00;99.90
39997;DHT22;25688;52.338;21.072;2024-03-02T01:40:39;5.90;99.90
39997;DHT22;25688;52.338;21.072;2024-03-02T01:43:06;5.90;99.90
39997;DHT22;25688;52.338;21.072;2024-03-02T01:45:35;5.90;99.90
39997;DHT22;25688;52.338;21.072;2024-03-02T01:48:06;5.90;99.90
39997;DHT22;25688;52.338;21.072;2024-03-02T01:50:34;5.80;99.90
39997;DHT22;25688;52.338;21.072;2024-03-02T01:53:03;5.80;99.90
39997;DHT22;25688;52.338;21.072;2024-03-02T01:55:29;5.80;99.90
39997;DHT22;25688;52.338;21.072;2024-03-02T01:58:40;5.70;99.90
39997;DHT22;25688;52.338;21.072;2024-03-02T02:01:27;5.70;99.90
39997;DHT22;25688;52.338;21.072;2024-03-02T02:03:53;5.70;99.90
39997;DHT22;25688;52.338;21.072;2024-03-02T02:06:19;5.60;99.90
39997;DHT22;25688;52.338;21.072;2024-03-02T02:08:45;5.60;99.90
39997;DHT22;25688;52.338;21.072;2024-03-02T02:11:15;5.60;99.90
39997;DHT22;25688;52.338;21.072;2024-03-02T02:13:41;5.60;99.90
39997;DHT22;25688;52.338;21.072;2024-03-02T02:16:07;5.60;99.90
39997;DHT22;25688;52.338;21.072;2024-03-02T02:18:34;5.60;99.90
39997;DHT22;25688;52.338;21.072;2024-03-02T02:21:00;5.60;99.90
39997;DHT22;25688;52.338;21.072;2024-03-02T02:23:26;5.60;99.90
39997;DHT22;25688;52.338;21.072;2024-03-02T02:25:52;5.60;99.90
39997;DHT22;25688;52.338;21.072;2024-03-02T02:28:18;5.60;99.90
39997;DHT22;25688;52.338;21.072;2024-03-02T02:30:43;5.50;99.90
39997;DHT22;25688;52.338;21.072;2024-03-02T02:33:09;5.60;99.90
39997;DHT22;25688;52.338;21.072;2024-03-02T02:35:35;5.50;99.90
39997;DHT22;25688;52.338;21.072;2024-03-02T02:38:02;5.50;99.90
39997;DHT22;25688;52.338;21.072;2024-03-02T02:40:28;5.50;99.90
39997;DHT22;25688;52.338;21.072;2024-03-02T02:42:58;5.50;99.90
39997;DHT22;25688;52.338;21.072;2024-03-02T02:45:24;5.40;99.90
39997;DHT22;25688;52.338;21.072;2024-03-02T02:47:50;5.40;99.90
39997;DHT22;25688;52.338;21.072;2024-03-02T02:50:16;5.40;99.90
39997;DHT22;25688;52.338;21.072;2024-03-02T02:52:42;5.40;99.90
39997;DHT22;25688;52.338;21.072;2024-03-02T02:55:10;5.40;99.90
39997;DHT22;25688;52.338;21.072;2024-03-02T02:57:36;5.30;99.90
39997;DHT22;25688;52.338;21.072;2024-03-02T03:00:10;5.30;99.90
39997;DHT22;25688;52.338;21.072;2024-03-02T03:02:43;5.30;99.90
39997;DHT22;25688;52.338;21.072;2024-03-02T03:05:10;5.30;99.90
39997;DHT22;25688;52.338;21.072;2024-03-02T03:07:36;5.30;99.90
39997;DHT22;25688;52.338;21.072;2024-03-02T03:10:03;5.20;99.90
39997;DHT22;25688;52.338;21.072;2024-03-02T03:12:30;5.30;99.90
39997;DHT22;25688;52.338;21.072;2024-03-02T03:14:57;5.20;99.90
39997;DHT22;25688;52.338;21.072;2024-03-02T03:17:22;5.20;99.90
39997;DHT22;25688;52.338;21.072;2024-03-02T03:19:49;5.20;99.90
39997;DHT22;25688;52.338;21.072;2024-03-02T03:22:15;5.20;99.90
39997;DHT22;25688;52.338;21.072;2024-03-02T03:24:41;5.20;99.90
39997;DHT22;25688;52.338;21.072;2024-03-02T03:27:07;5.10;99.90
39997;DHT22;25688;52.338;21.072;2024-03-02T03:29:33;5.20;99.90
39997;DHT22;25688;52.338;21.072;2024-03-02T03:32:07;5.10;99.90
39997;DHT22;25688;52.338;21.072;2024-03-02T03:37:54;5.10;99.90
39997;DHT22;25688;52.338;21.072;2024-03-02T03:40:20;5.10;99.90
39997;DHT22;25688;52.338;21.072;2024-03-02T03:42:46;5.10;99.90
39997;DHT22;25688;52.338;21.072;2024-03-02T03:45:11;5.10;99.90
39997;DHT22;25688;52.338;21.072;2024-03-02T03:47:37;5.00;99.90
39997;DHT22;25688;52.338;21.072;2024-03-02T03:50:03;5.00;99.90
39997;DHT22;25688;52.338;21.072;2024-03-02T03:52:32;5.10;99.90
39997;DHT22;25688;52.338;21.072;2024-03-02T03:54:59;5.00;99.90
39997;DHT22;25688;52.338;21.072;2024-03-02T03:57:25;5.00;99.90
39997;DHT22;25688;52.338;21.072;2024-03-02T03:59:52;4.90;99.90
39997;DHT22;25688;52.338;21.072;2024-03-02T04:02:17;4.90;99.90
39997;DHT22;25688;52.338;21.072;2024-03-02T04:04:43;4.90;99.90
39997;DHT22;25688;52.338;21.072;2024-03-02T04:07:09;4.90;99.90
39997;DHT22;25688;52.338;21.072;2024-03-02T04:09:35;4.90;99.90
39997;DHT22;25688;52.338;21.072;2024-03-02T04:12:01;4.90;99.90
39997;DHT22;25688;52.338;21.072;2024-03-02T04:14:27;4.80;99.90
39997;DHT22;25688;52.338;21.072;2024-03-02T04:16:52;4.80;99.90
39997;DHT22;25688;52.338;21.072;2024-03-02T04:19:18;4.80;99.90
39997;DHT22;25688;52.338;21.072;2024-03-02T04:21:44;4.80;99.90
39997;DHT22;25688;52.338;21.072;2024-03-02T04:24:10;4.80;99.90
39997;DHT22;25688;52.338;21.072;2024-03-02T04:26:35;4.80;99.90
39997;DHT22;25688;52.338;21.072;2024-03-02T04:29:01;4.80;99.90
39997;DHT22;25688;52.338;21.072;2024-03-02T04:31:27;4.80;99.90
39997;DHT22;25688;52.338;21.072;2024-03-02T04:33:53;4.80;99.90
39997;DHT22;25688;52.338;21.072;2024-03-02T04:36:19;4.80;99.90
39997;DHT22;25688;52.338;21.072;2024-03-02T04:38:49;4.80;99.90
39997;DHT22;25688;52.338;21.072;2024-03-02T04:41:15;4.70;99.90
39997;DHT22;25688;52.338;21.072;2024-03-02T04:43:41;4.70;99.90
39997;DHT22;25688;52.338;21.072;2024-03-02T04:46:07;4.70;99.90
39997;DHT22;25688;52.338;21.072;2024-03-02T04:48:33;4.60;99.90
39997;DHT22;25688;52.338;21.072;2024-03-02T04:50:59;4.70;99.90
39997;DHT22;25688;52.338;21.072;2024-03-02T04:53:25;4.70;99.90
39997;DHT22;25688;52.338;21.072;2024-03-02T04:55:51;4.70;99.90
39997;DHT22;25688;52.338;21.072;2024-03-02T04:58:19;4.70;99.90
39997;DHT22;25688;52.338;21.072;2024-03-02T05:00:45;4.70;99.90
39997;DHT22;25688;52.338;21.072;2024-03-02T05:03:14;4.70;99.90
39997;DHT22;25688;52.338;21.072;2024-03-02T05:05:40;4.60;99.90
39997;DHT22;25688;52.338;21.072;2024-03-02T05:08:05;4.60;99.90
39997;DHT22;25688;52.338;21.072;2024-03-02T05:10:32;4.60;99.90
39997;DHT22;25688;52.338;21.072;2024-03-02T05:12:57;4.60;99.90
39997;DHT22;25688;52.338;21.072;2024-03-02T05:15:24;4.60;99.90
39997;DHT22;25688;52.338;21.072;2024-03-02T05:17:50;4.60;99.90
39997;DHT22;25688;52.338;21.072;2024-03-02T05:20:16;4.60;99.90
39997;DHT22;25688;52.338;21.072;2024-03-02T05:22:42;4.60;99.90
39997;DHT22;25688;52.338;21.072;2024-03-02T05:25:08;4.60;99.90
39997;DHT22;25688;52.338;21.072;2024-03-02T05:27:37;4.60;99.90
39997;DHT22;25688;52.338;21.072;2024-03-02T05:30:03;4.60;99.90
39997;DHT22;25688;52.338;21.072;2024-03-02T05:32:32;4.60;99.90
39997;DHT22;25688;52.338;21.072;2024-03-02T05:34:57;4.60;99.90
39997;DHT22;25688;52.338;21.072;2024-03-02T05:37:23;4.70;99.90
39997;DHT22;25688;52.338;21.072;2024-03-02T05:39:49;4.60;99.90
39997;DHT22;25688;52.338;21.072;2024-03-02T05:42:15;4.70;99.90
39997;DHT22;25688;52.338;21.072;2024-03-02T05:44:42;4.70;99.90
39997;DHT22;25688;52.338;21.072;2024-03-02T05:47:08;4.70;99.90
39997;DHT22;25688;52.338;21.072;2024-03-02T05:49:34;4.80;99.90
39997;DHT22;25688;52.338;21.072;2024-03-02T05:52:00;4.80;99.90
39997;DHT22;25688;52.338;21.072;2024-03-02T05:54:29;4.80;99.90
39997;DHT22;25688;52.338;21.072;2024-03-02T05:56:55;4.80;99.90
39997;DHT22;25688;52.338;21.072;2024-03-02T05:59:20;4.90;99.90
39997;DHT22;25688;52.338;21.072;2024-03-02T06:01:47;4.90;99.90
39997;DHT22;25688;52.338;21.072;2024-03-02T06:04:13;4.90;99.90
39997;DHT22;25688;52.338;21.072;2024-03-02T06:06:40;5.00;99.90
39997;DHT22;25688;52.338;21.072;2024-03-02T06:09:06;5.00;99.90
39997;DHT22;25688;52.338;21.072;2024-03-02T06:11:55;5.00;99.90
39997;DHT22;25688;52.338;21.072;2024-03-02T06:14:22;5.10;99.90
39997;DHT22;25688;52.338;21.072;2024-03-02T06:16:48;5.10;99.90
39997;DHT22;25688;52.338;21.072;2024-03-02T06:19:13;5.10;99.90
39997;DHT22;25688;52.338;21.072;2024-03-02T06:21:39;5.20;99.90
39997;DHT22;25688;52.338;21.072;2024-03-02T06:24:06;5.20;99.90
39997;DHT22;25688;52.338;21.072;2024-03-02T06:26:33;5.20;99.90
39997;DHT22;25688;52.338;21.072;2024-03-02T06:29:10;5.30;99.90
39997;DHT22;25688;52.338;21.072;2024-03-02T06:31:36;5.30;99.90
39997;DHT22;25688;52.338;21.072;2024-03-02T06:34:02;5.30;99.90
39997;DHT22;25688;52.338;21.072;2024-03-02T06:36:30;5.40;99.90
39997;DHT22;25688;52.338;21.072;2024-03-02T06:38:56;5.40;99.90
39997;DHT22;25688;52.338;21.072;2024-03-02T06:41:24;5.50;99.90
39997;DHT22;25688;52.338;21.072;2024-03-02T06:43:50;5.50;99.90
39997;DHT22;25688;52.338;21.072;2024-03-02T06:46:15;5.60;99.90
39997;DHT22;25688;52.338;21.072;2024-03-02T06:48:41;5.60;99.90
39997;DHT22;25688;52.338;21.072;2024-03-02T06:51:07;5.70;99.90
39997;DHT22;25688;52.338;21.072;2024-03-02T06:53:32;5.70;99.90
39997;DHT22;25688;52.338;21.072;2024-03-02T06:56:02;5.80;99.90
39997;DHT22;25688;52.338;21.072;2024-03-02T06:58:55;5.80;99.90
39997;DHT22;25688;52.338;21.072;2024-03-02T07:01:50;5.90;99.90
39997;DHT22;25688;52.338;21.072;2024-03-02T07:04:30;6.00;99.90
39997;DHT22;25688;52.338;21.072;2024-03-02T07:07:21;6.10;99.90
39997;DHT22;25688;52.338;21.072;2024-03-02T07:10:02;6.10;99.90
39997;DHT22;25688;52.338;21.072;2024-03-02T07:12:39;6.20;99.90
39997;DHT22;25688;52.338;21.072;2024-03-02T07:21:51;6.30;99.90
39997;DHT22;25688;52.338;21.072;2024-03-02T07:24:59;6.40;99.90
39997;DHT22;25688;52.338;21.072;2024-03-02T07:27:38;6.40;99.90
39997;DHT22;25688;52.338;21.072;2024-03-02T07:30:06;6.40;99.90
39997;DHT22;25688;52.338;21.072;2024-03-02T07:32:32;6.50;99.90
39997;DHT22;25688;52.338;21.072;2024-03-02T07:34:58;6.50;99.90
39997;DHT22;25688;52.338;21.072;2024-03-02T07:37:24;6.60;99.90
39997;DHT22;25688;52.338;21.072;2024-03-02T07:39:54;6.60;99.90
39997;DHT22;25688;52.338;21.072;2024-03-02T07:42:20;6.60;99.90
39997;DHT22;25688;52.338;21.072;2024-03-02T07:44:45;6.70;99.90
39997;DHT22;25688;52.338;21.072;2024-03-02T07:47:12;6.80;99.90
39997;DHT22;25688;52.338;21.072;2024-03-02T07:49:39;6.80;99.90
39997;DHT22;25688;52.338;21.072;2024-03-02T07:52:11;6.90;99.90
39997;DHT22;25688;52.338;21.072;2024-03-02T07:54:38;7.00;99.90
39997;DHT22;25688;52.338;21.072;2024-03-02T07:57:04;7.10;99.90
39997;DHT22;25688;52.338;21.072;2024-03-02T07:59:31;7.20;99.90
39997;DHT22;25688;52.338;21.072;2024-03-02T08:01:58;7.30;99.90
39997;DHT22;25688;52.338;21.072;2024-03-02T08:04:24;7.30;99.90
39997;DHT22;25688;52.338;21.072;2024-03-02T08:06:50;7.30;99.90
39997;DHT22;25688;52.338;21.072;2024-03-02T08:09:16;7.30;99.90
39997;DHT22;25688;52.338;21.072;2024-03-02T08:11:41;7.40;99.90
39997;DHT22;25688;52.338;21.072;2024-03-02T08:14:07;7.40;99.90
39997;DHT22;25688;52.338;21.072;2024-03-02T08:16:33;7.50;99.90
39997;DHT22;25688;52.338;21.072;2024-03-02T08:18:59;7.50;99.90
39997;DHT22;25688;52.338;21.072;2024-03-02T08:21:26;7.50;99.90
39997;DHT22;25688;52.338;21.072;2024-03-02T08:23:52;7.60;99.90
39997;DHT22;25688;52.338;21.072;2024-03-02T08:26:20;7.60;99.90
39997;DHT22;25688;52.338;21.072;2024-03-02T08:28:47;7.70;99.90
39997;DHT22;25688;52.338;21.072;2024-03-02T08:31:13;7.70;99.90
39997;DHT22;25688;52.338;21.072;2024-03-02T08:33:39;7.70;99.90
39997;DHT22;25688;52.338;21.072;2024-03-02T08:36:06;7.70;99.90
39997;DHT22;25688;52.338;21.072;2024-03-02T08:38:32;7.80;99.90
39997;DHT22;25688;52.338;21.072;2024-03-02T08:40:58;7.80;99.90
39997;DHT22;25688;52.338;21.072;2024-03-02T08:43:30;7.80;99.90
39997;DHT22;25688;52.338;21.072;2024-03-02T08:46:05;7.80;99.90
39997;DHT22;25688;52.338;21.072;2024-03-02T08:48:31;7.80;99.90
39997;DHT22;25688;52.338;21.072;2024-03-02T08:50:57;7.80;99.90
39997;DHT22;25688;52.338;21.072;2024-03-02T08:53:22;7.90;99.90
39997;DHT22;25688;52.338;21.072;2024-03-02T08:55:48;7.90;99.90
39997;DHT22;25688;52.338;21.072;2024-03-02T08:58:14;7.90;99.90
39997;DHT22;25688;52.338;21.072;2024-03-02T09:00:40;8.00;99.90
39997;DHT22;25688;52.338;21.072;2024-03-02T09:03:07;8.10;99.90
39997;DHT22;25688;52.338;21.072;2024-03-02T09:05:33;8.20;99.90
39997;DHT22;25688;52.338;21.072;2024-03-02T09:07:58;8.30;99.90
39997;DHT22;25688;52.338;21.072;2024-03-02T09:10:24;8.30;99.90
39997;DHT22;25688;52.338;21.072;2024-03-02T09:12:54;8.40;99.90
39997;DHT22;25688;52.338;21.072;2024-03-02T09:15:29;8.40;99.90
39997;DHT22;25688;52.338;21.072;2024-03-02T09:17:57;8.50;99.90
39997;DHT22;25688;52.338;21.072;2024-03-02T09:23:54;8.70;99.90
39997;DHT22;25688;52.338;21.072;2024-03-02T09:26:22;8.60;99.90
39997;DHT22;25688;52.338;21.072;2024-03-02T09:28:48;8.60;99.90
39997;DHT22;25688;52.338;21.072;2024-03-02T09:31:13;8.60;99.90
39997;DHT22;25688;52.338;21.072;2024-03-02T09:33:39;8.50;99.90
39997;DHT22;25688;52.338;21.072;2024-03-02T09:36:05;8.50;99.90
39997;DHT22;25688;52.338;21.072;2024-03-02T09:38:35;8.50;99.90
39997;DHT22;25688;52.338;21.072;2024-03-02T09:41:02;8.60;99.90
39997;DHT22;25688;52.338;21.072;2024-03-02T09:43:28;8.70;99.90
39997;DHT22;25688;52.338;21.072;2024-03-02T09:45:54;8.70;99.90
39997;DHT22;25688;52.338;21.072;2024-03-02T09:48:20;8.80;99.90
39997;DHT22;25688;52.338;21.072;2024-03-02T09:50:46;8.90;99.90
39997;DHT22;25688;52.338;21.072;2024-03-02T09:53:13;9.00;99.90
39997;DHT22;25688;52.338;21.072;2024-03-02T09:55:39;8.90;99.90
39997;DHT22;25688;52.338;21.072;2024-03-02T09:58:09;9.00;99.90
39997;DHT22;25688;52.338;21.072;2024-03-02T10:00:35;9.00;99.90
39997;DHT22;25688;52.338;21.072;2024-03-02T10:03:00;9.00;99.90
39997;DHT22;25688;52.338;21.072;2024-03-02T10:05:29;9.00;99.90
39997;DHT22;25688;52.338;21.072;2024-03-02T10:08:03;9.10;99.90
39997;DHT22;25688;52.338;21.072;2024-03-02T10:10:38;9.20;99.90
39997;DHT22;25688;52.338;21.072;2024-03-02T10:13:13;9.30;99.90
39997;DHT22;25688;52.338;21.072;2024-03-02T10:15:40;9.50;99.90
39997;DHT22;25688;52.338;21.072;2024-03-02T10:18:12;9.70;99.90
39997;DHT22;25688;52.338;21.072;2024-03-02T10:20:39;9.80;99.90
39997;DHT22;25688;52.338;21.072;2024-03-02T10:23:12;9.80;99.90
39997;DHT22;25688;52.338;21.072;2024-03-02T10:25:38;10.00;99.90
39997;DHT22;25688;52.338;21.072;2024-03-02T10:28:04;10.00;99.90
39997;DHT22;25688;52.338;21.072;2024-03-02T10:30:33;10.10;99.90
39997;DHT22;25688;52.338;21.072;2024-03-02T10:33:01;10.20;99.90
39997;DHT22;25688;52.338;21.072;2024-03-02T10:35:28;10.30;99.90
39997;DHT22;25688;52.338;21.072;2024-03-02T10:37:53;10.30;99.90
39997;DHT22;25688;52.338;21.072;2024-03-02T10:40:23;10.40;99.90
39997;DHT22;25688;52.338;21.072;2024-03-02T10:42:50;10.40;99.90
39997;DHT22;25688;52.338;21.072;2024-03-02T10:45:16;10.50;99.90
39997;DHT22;25688;52.338;21.072;2024-03-02T10:47:44;10.40;99.90
39997;DHT22;25688;52.338;21.072;2024-03-02T10:50:15;10.50;99.90
39997;DHT22;25688;52.338;21.072;2024-03-02T10:52:41;10.40;99.90
39997;DHT22;25688;52.338;21.072;2024-03-02T10:55:17;10.50;99.90
39997;DHT22;25688;52.338;21.072;2024-03-02T10:57:52;10.60;99.90
39997;DHT22;25688;52.338;21.072;2024-03-02T11:00:19;10.70;99.90
39997;DHT22;25688;52.338;21.072;2024-03-02T11:02:52;10.70;99.90
39997;DHT22;25688;52.338;21.072;2024-03-02T11:05:27;10.80;99.90
39997;DHT22;25688;52.338;21.072;2024-03-02T11:08:02;10.90;99.90
39997;DHT22;25688;52.338;21.072;2024-03-02T11:10:35;11.00;99.90
39997;DHT22;25688;52.338;21.072;2024-03-02T11:13:05;11.10;99.90
39997;DHT22;25688;52.338;21.072;2024-03-02T11:15:31;11.10;99.90
39997;DHT22;25688;52.338;21.072;2024-03-02T11:17:59;11.20;99.90
39997;DHT22;25688;52.338;21.072;2024-03-02T11:21:07;11.20;99.90
39997;DHT22;25688;52.338;21.072;2024-03-02T11:26:45;11.40;99.90
39997;DHT22;25688;52.338;21.072;2024-03-02T11:34:33;11.50;99.90
39997;DHT22;25688;52.338;21.072;2024-03-02T11:37:01;11.50;99.90
39997;DHT22;25688;52.338;21.072;2024-03-02T11:39:28;11.50;99.90
39997;DHT22;25688;52.338;21.072;2024-03-02T11:41:57;11.40;99.90
39997;DHT22;25688;52.338;21.072;2024-03-02T11:44:27;11.50;99.90
39997;DHT22;25688;52.338;21.072;2024-03-02T11:47:05;11.50;99.90
39997;DHT22;25688;52.338;21.072;2024-03-02T11:49:44;11.40;99.90
39997;DHT22;25688;52.338;21.072;2024-03-02T11:52:14;11.50;99.90
39997;DHT22;25688;52.338;21.072;2024-03-02T11:54:44;11.50;99.90
39997;DHT22;25688;52.338;21.072;2024-03-02T11:57:16;11.50;99.90
39997;DHT22;25688;52.338;21.072;2024-03-02T11:59:42;11.60;99.90
39997;DHT22;25688;52.338;21.072;2024-03-02T12:02:15;11.60;99.90
39997;DHT22;25688;52.338;21.072;2024-03-02T12:04:42;11.60;99.90
39997;DHT22;25688;52.338;21.072;2024-03-02T12:07:21;11.70;99.90
39997;DHT22;25688;52.338;21.072;2024-03-02T12:09:59;11.80;99.90
39997;DHT22;25688;52.338;21.072;2024-03-02T12:12:25;11.80;99.90
39997;DHT22;25688;52.338;21.072;2024-03-02T12:14:53;11.80;99.90
39997;DHT22;25688;52.338;21.072;2024-03-02T12:17:21;11.70;99.90
39997;DHT22;25688;52.338;21.072;2024-03-02T12:19:47;11.60;99.90
39997;DHT22;25688;52.338;21.072;2024-03-02T12:22:13;11.40;99.90
39997;DHT22;25688;52.338;21.072;2024-03-02T12:24:39;11.30;99.90
39997;DHT22;25688;52.338;21.072;2024-03-02T12:27:07;11.20;99.90
39997;DHT22;25688;52.338;21.072;2024-03-02T12:29:34;11.10;99.90
39997;DHT22;25688;52.338;21.072;2024-03-02T12:32:01;11.00;99.90
39997;DHT22;25688;52.338;21.072;2024-03-02T12:34:28;11.00;99.90
39997;DHT22;25688;52.338;21.072;2024-03-02T12:37:04;11.10;99.90
39997;DHT22;25688;52.338;21.072;2024-03-02T12:39:30;11.20;99.90
39997;DHT22;25688;52.338;21.072;2024-03-02T12:41:58;11.30;99.90
39997;DHT22;25688;52.338;21.072;2024-03-02T12:44:25;11.40;99.90
39997;DHT22;25688;52.338;21.072;2024-03-02T12:46:53;11.50;99.90
39997;DHT22;25688;52.338;21.072;2024-03-02T12:49:22;11.60;99.90
39997;DHT22;25688;52.338;21.072;2024-03-02T12:51:48;11.70;99.90
39997;DHT22;25688;52.338;21.072;2024-03-02T12:54:17;11.70;99.90
39997;DHT22;25688;52.338;21.072;2024-03-02T12:56:43;11.70;99.90
39997;DHT22;25688;52.338;21.072;2024-03-02T12:59:18;11.70;99.90
39997;DHT22;25688;52.338;21.072;2024-03-02T13:01:54;11.80;99.90
39997;DHT22;25688;52.338;21.072;2024-03-02T13:04:26;11.80;99.90
39997;DHT22;25688;52.338;21.072;2024-03-02T13:06:52;11.80;99.90
39997;DHT22;25688;52.338;21.072;2024-03-02T13:09:19;11.80;99.90
39997;DHT22;25688;52.338;21.072;2024-03-02T13:11:44;11.80;99.90
39997;DHT22;25688;52.338;21.072;2024-03-02T13:14:11;11.70;99.90
39997;DHT22;25688;52.338;21.072;2024-03-02T13:16:40;11.70;99.90
39997;DHT22;25688;52.338;21.072;2024-03-02T13:19:10;11.50;99.90
39997;DHT22;25688;52.338;21.072;2024-03-02T13:21:36;11.50;99.90
39997;DHT22;25688;52.338;21.072;2024-03-02T13:24:04;11.50;99.90
39997;DHT22;25688;52.338;21.072;2024-03-02T13:26:32;11.40;99.90
39997;DHT22;25688;52.338;21.072;2024-03-02T13:29:16;11.30;99.90
39997;DHT22;25688;52.338;21.072;2024-03-02T13:31:42;11.10;99.90
39997;DHT22;25688;52.338;21.072;2024-03-02T13:34:09;11.00;99.90
39997;DHT22;25688;52.338;21.072;2024-03-02T13:36:35;11.00;99.90
39997;DHT22;25688;52.338;21.072;2024-03-02T13:39:00;10.90;99.90
39997;DHT22;25688;52.338;21.072;2024-03-02T13:41:26;10.80;99.90
39997;DHT22;25688;52.338;21.072;2024-03-02T13:43:52;10.80;99.90
39997;DHT22;25688;52.338;21.072;2024-03-02T13:46:18;10.70;99.90
39997;DHT22;25688;52.338;21.072;2024-03-02T13:48:44;10.60;99.90
39997;DHT22;25688;52.338;21.072;2024-03-02T13:51:11;10.60;99.90
39997;DHT22;25688;52.338;21.072;2024-03-02T13:53:40;10.60;99.90
39997;DHT22;25688;52.338;21.072;2024-03-02T13:56:07;10.60;99.90
39997;DHT22;25688;52.338;21.072;2024-03-02T13:58:33;10.50;99.90
39997;DHT22;25688;52.338;21.072;2024-03-02T14:01:02;10.50;99.90
39997;DHT22;25688;52.338;21.072;2024-03-02T14:03:30;10.50;99.90
39997;DHT22;25688;52.338;21.072;2024-03-02T14:05:56;10.50;99.90
39997;DHT22;25688;52.338;21.072;2024-03-02T14:08:22;10.40;99.90
39997;DHT22;25688;52.338;21.072;2024-03-02T14:10:49;10.40;99.90
39997;DHT22;25688;52.338;21.072;2024-03-02T14:13:15;10.40;99.90
39997;DHT22;25688;52.338;21.072;2024-03-02T14:15:41;10.30;99.90
39997;DHT22;25688;52.338;21.072;2024-03-02T14:18:07;10.30;99.90
39997;DHT22;25688;52.338;21.072;2024-03-02T14:21:13;10.30;99.90
39997;DHT22;25688;52.338;21.072;2024-03-02T14:27:11;10.10;99.90
39997;DHT22;25688;52.338;21.072;2024-03-02T14:29:38;10.10;99.90
39997;DHT22;25688;52.338;21.072;2024-03-02T14:32:28;10.10;99.90
39997;DHT22;25688;52.338;21.072;2024-03-02T14:41:14;9.90;99.90
39997;DHT22;25688;52.338;21.072;2024-03-02T14:43:40;9.80;99.90
39997;DHT22;25688;52.338;21.072;2024-03-02T14:46:06;9.80;99.90
39997;DHT22;25688;52.338;21.072;2024-03-02T15:10:56;9.20;99.90
39997;DHT22;25688;52.338;21.072;2024-03-02T15:19:21;9.20;99.90
39997;DHT22;25688;52.338;21.072;2024-03-02T15:21:50;9.10;99.90
39997;DHT22;25688;52.338;21.072;2024-03-02T15:24:16;9.10;99.90
39997;DHT22;25688;52.338;21.072;2024-03-02T15:26:41;9.10;99.90
39997;DHT22;25688;52.338;21.072;2024-03-02T15:29:07;9.00;99.90
39997;DHT22;25688;52.338;21.072;2024-03-02T15:31:42;9.00;99.90
39997;DHT22;25688;52.338;21.072;2024-03-02T15:34:08;8.90;99.90
39997;DHT22;25688;52.338;21.072;2024-03-02T15:36:34;8.90;99.90
39997;DHT22;25688;52.338;21.072;2024-03-02T15:39:00;8.90;99.90
39997;DHT22;25688;52.338;21.072;2024-03-02T15:41:27;8.90;99.90
39997;DHT22;25688;52.338;21.072;2024-03-02T15:43:52;8.90;99.90
39997;DHT22;25688;52.338;21.072;2024-03-02T15:46:18;8.80;99.90
39997;DHT22;25688;52.338;21.072;2024-03-02T15:48:47;8.80;99.90
39997;DHT22;25688;52.338;21.072;2024-03-02T15:51:13;8.80;99.90
39997;DHT22;25688;52.338;21.072;2024-03-02T15:53:39;8.70;99.90
39997;DHT22;25688;52.338;21.072;2024-03-02T15:56:04;8.70;99.90
39997;DHT22;25688;52.338;21.072;2024-03-02T15:58:30;8.70;99.90
39997;DHT22;25688;52.338;21.072;2024-03-02T16:00:59;8.70;99.90
39997;DHT22;25688;52.338;21.072;2024-03-02T16:03:25;8.60;99.90
39997;DHT22;25688;52.338;21.072;2024-03-02T16:05:56;8.60;99.90
39997;DHT22;25688;52.338;21.072;2024-03-02T16:08:22;8.60;99.90
39997;DHT22;25688;52.338;21.072;2024-03-02T16:11:03;8.50;99.90
39997;DHT22;25688;52.338;21.072;2024-03-02T16:13:29;8.50;99.90
39997;DHT22;25688;52.338;21.072;2024-03-02T16:15:56;8.50;99.90
39997;DHT22;25688;52.338;21.072;2024-03-02T16:18:22;8.50;99.90
39997;DHT22;25688;52.338;21.072;2024-03-02T16:20:49;8.40;99.90
39997;DHT22;25688;52.338;21.072;2024-03-02T16:23:17;8.40;99.90
39997;DHT22;25688;52.338;21.072;2024-03-02T16:25:43;8.40;99.90
39997;DHT22;25688;52.338;21.072;2024-03-02T16:28:09;8.30;99.90
39997;DHT22;25688;52.338;21.072;2024-03-02T16:30:35;8.30;99.90
39997;DHT22;25688;52.338;21.072;2024-03-02T16:33:02;8.30;99.90
39997;DHT22;25688;52.338;21.072;2024-03-02T16:35:34;8.30;99.90